createdAt,value
2019-02-15T00:05:40.278Z,30.68
2019-02-15T00:08:06.027Z,30.17
2019-02-15T00:10:31.796Z,30.87
2019-02-15T00:12:57.560Z,31.37
2019-02-15T00:15:23.335Z,37.53
2019-02-15T00:20:56.281Z,27.93
2019-02-15T00:23:22.056Z,28.90
2019-02-15T00:25:47.827Z,27.30
2019-02-15T00:28:13.581Z,27.40
2019-02-15T00:30:39.366Z,27.47
2019-02-15T00:33:05.120Z,27.87
2019-02-15T00:35:30.889Z,28.87
2019-02-15T00:37:56.671Z,29.90
2019-02-15T00:40:22.446Z,31.30
2019-02-15T00:42:48.202Z,30.40
2019-02-15T00:48:01.503Z,29.35
2019-02-15T00:50:44.170Z,33.08
2019-02-15T00:53:14.787Z,29.02
2019-02-15T00:55:58.605Z,28.02
2019-02-15T00:58:44.260Z,31.27
2019-02-15T01:01:17.706Z,29.07
2019-02-15T01:03:45.368Z,29.37
2019-02-15T01:06:13.033Z,30.65
2019-02-15T01:08:46.221Z,28.92
2019-02-15T01:11:16.665Z,27.15
2019-02-15T01:13:42.422Z,26.82
2019-02-15T01:16:08.187Z,26.63
2019-02-15T01:18:33.957Z,29.57
2019-02-15T01:20:59.730Z,32.93
2019-02-15T01:23:25.469Z,31.50
2019-02-15T01:25:53.141Z,28.50
2019-02-15T01:28:20.805Z,27.65
2019-02-15T01:30:48.473Z,27.82
2019-02-15T01:33:18.669Z,28.02
2019-02-15T01:36:02.790Z,27.73
2019-02-15T01:38:30.440Z,26.75
2019-02-15T01:41:00.652Z,26.82
2019-02-15T01:43:28.323Z,26.90
2019-02-15T01:46:01.559Z,30.17
2019-02-15T01:48:27.329Z,29.37
2019-02-15T01:50:53.105Z,26.20
2019-02-15T01:53:18.853Z,27.07
2019-02-15T01:55:44.616Z,25.50
2019-02-15T01:58:10.400Z,27.60
2019-02-15T02:00:36.266Z,28.37
2019-02-15T02:03:02.024Z,26.13
2019-02-15T02:05:27.874Z,29.07
2019-02-15T02:07:53.662Z,26.67
2019-02-15T02:10:19.409Z,25.67
2019-02-15T02:12:45.198Z,25.50
2019-02-15T02:15:11.150Z,25.33
2019-02-15T02:17:36.933Z,25.93
2019-02-15T02:20:05.005Z,26.00
2019-02-15T02:22:30.784Z,26.17
2019-02-15T02:24:56.538Z,25.27
2019-02-15T02:27:22.300Z,25.77
2019-02-15T02:29:48.080Z,25.77
2019-02-15T02:32:13.847Z,24.47
2019-02-15T02:34:39.614Z,24.67
2019-02-15T02:37:05.426Z,24.53
2019-02-15T02:39:31.192Z,27.23
2019-02-15T02:41:56.949Z,25.10
2019-02-15T02:44:22.718Z,25.23
2019-02-15T02:46:48.470Z,25.47
2019-02-15T02:49:14.266Z,25.97
2019-02-15T02:51:39.990Z,25.13
2019-02-15T02:54:05.762Z,24.43
2019-02-15T02:56:31.550Z,25.50
2019-02-15T02:58:57.311Z,25.63
2019-02-15T03:01:23.289Z,26.73
2019-02-15T03:03:49.026Z,24.33
2019-02-15T03:06:14.799Z,23.10
2019-02-15T03:08:40.567Z,25.37
2019-02-15T03:11:06.319Z,25.80
2019-02-15T03:13:32.105Z,26.00
2019-02-15T03:15:57.872Z,26.33
2019-02-15T03:18:23.646Z,24.83
2019-02-15T03:20:49.399Z,24.13
2019-02-15T03:23:15.207Z,24.67
2019-02-15T03:25:40.957Z,24.37
2019-02-15T03:28:06.720Z,24.23
2019-02-15T03:30:32.480Z,25.40
2019-02-15T03:32:58.228Z,23.90
2019-02-15T03:35:24.002Z,25.60
2019-02-15T03:37:54.174Z,24.37
2019-02-15T03:40:21.839Z,25.88
2019-02-15T03:42:47.597Z,25.05
2019-02-15T03:45:15.270Z,22.93
2019-02-15T03:47:41.018Z,24.80
2019-02-15T03:50:07.205Z,25.00
2019-02-15T03:52:32.993Z,25.75
2019-02-15T03:54:58.760Z,27.17
2019-02-15T03:57:24.507Z,26.00
2019-02-15T03:59:50.279Z,22.83
2019-02-15T04:02:16.052Z,23.63
2019-02-15T04:04:41.800Z,23.03
2019-02-15T04:07:07.549Z,22.30
2019-02-15T04:09:33.341Z,23.70
2019-02-15T04:11:59.109Z,23.17
2019-02-15T04:14:32.499Z,25.00
2019-02-15T04:16:52.533Z,26.97
2019-02-15T04:19:18.290Z,25.30
2019-02-15T04:21:44.069Z,26.63
2019-02-15T04:24:09.833Z,25.93
2019-02-15T04:26:35.605Z,23.83
2019-02-15T04:29:01.363Z,23.30
2019-02-15T04:31:27.127Z,22.90
2019-02-15T04:33:52.878Z,22.53
2019-02-15T04:36:18.649Z,23.60
2019-02-15T04:38:44.433Z,23.43
2019-02-15T04:41:10.206Z,25.73
2019-02-15T04:43:35.955Z,26.70
2019-02-15T04:46:01.721Z,28.20
2019-02-15T04:48:27.472Z,23.40
2019-02-15T04:50:53.239Z,23.07
2019-02-15T04:53:18.990Z,22.33
2019-02-15T04:55:44.749Z,22.23
2019-02-15T04:58:10.503Z,22.07
2019-02-15T05:00:36.275Z,21.97
2019-02-15T05:03:02.025Z,22.63
2019-02-15T05:05:27.793Z,22.93
2019-02-15T05:07:53.548Z,22.47
2019-02-15T05:10:19.297Z,23.27
2019-02-15T05:12:45.080Z,20.93
2019-02-15T05:15:10.820Z,23.03
2019-02-15T05:17:36.584Z,21.70
2019-02-15T05:20:03.837Z,21.63
2019-02-15T05:22:29.602Z,25.35
2019-02-15T05:24:55.350Z,22.80
2019-02-15T05:27:21.114Z,23.53
2019-02-15T05:29:46.878Z,25.80
2019-02-15T05:32:12.634Z,21.80
2019-02-15T05:34:38.374Z,21.27
2019-02-15T05:37:04.161Z,20.73
2019-02-15T05:39:29.910Z,22.03
2019-02-15T05:41:55.668Z,21.50
2019-02-15T05:44:21.443Z,22.33
2019-02-15T05:46:47.216Z,21.30
2019-02-15T05:49:12.965Z,22.37
2019-02-15T05:51:38.733Z,21.73
2019-02-15T05:54:04.481Z,22.10
2019-02-15T05:56:30.244Z,23.57
2019-02-15T05:58:55.994Z,25.07
2019-02-15T06:01:23.284Z,24.73
2019-02-15T06:03:49.049Z,22.82
2019-02-15T06:06:14.810Z,21.93
2019-02-15T06:08:40.573Z,26.00
2019-02-15T06:11:08.123Z,29.30
2019-02-15T06:13:34.005Z,31.97
2019-02-15T06:15:59.754Z,30.63
2019-02-15T06:18:25.521Z,28.97
2019-02-15T06:20:51.275Z,24.10
2019-02-15T06:23:17.036Z,22.53
2019-02-15T06:25:42.786Z,21.40
2019-02-15T06:28:10.441Z,20.40
2019-02-15T06:30:36.209Z,22.07
2019-02-15T06:33:01.971Z,20.27
2019-02-15T06:35:27.745Z,19.87
2019-02-15T06:37:53.516Z,20.00
2019-02-15T06:40:19.280Z,25.37
2019-02-15T06:42:45.051Z,20.10
2019-02-15T06:45:10.799Z,19.20
2019-02-15T06:47:36.554Z,21.17
2019-02-15T06:50:03.126Z,23.70
2019-02-15T06:52:28.870Z,20.97
2019-02-15T06:54:54.630Z,22.07
2019-02-15T06:57:20.391Z,20.83
2019-02-15T06:59:53.913Z,20.07
2019-02-15T07:02:27.463Z,18.62
2019-02-15T07:05:11.508Z,20.32
2019-02-15T07:07:37.254Z,20.97
2019-02-15T07:10:04.818Z,20.20
2019-02-15T07:12:30.570Z,20.52
2019-02-15T07:14:56.338Z,24.50
2019-02-15T07:17:22.096Z,24.63
2019-02-15T07:19:47.857Z,21.50
2019-02-15T07:22:13.620Z,25.13
2019-02-15T07:24:39.388Z,20.20
2019-02-15T07:27:05.149Z,20.00
2019-02-15T07:29:30.904Z,20.93
2019-02-15T07:31:56.659Z,24.87
2019-02-15T07:34:22.421Z,23.60
2019-02-15T07:36:48.404Z,26.37
2019-02-15T07:39:14.170Z,25.17
2019-02-15T07:41:39.933Z,21.10
2019-02-15T07:44:05.715Z,23.90
2019-02-15T07:46:31.461Z,22.07
2019-02-15T07:48:57.218Z,22.37
2019-02-15T07:51:22.994Z,20.57
2019-02-15T07:53:48.740Z,22.97
2019-02-15T07:56:14.509Z,21.63
2019-02-15T07:58:40.261Z,21.47
2019-02-15T08:01:06.032Z,21.07
2019-02-15T08:03:31.798Z,21.80
2019-02-15T08:05:57.572Z,21.03
2019-02-15T08:08:23.324Z,23.13
2019-02-15T08:10:49.099Z,23.97
2019-02-15T08:13:14.845Z,22.37
2019-02-15T08:15:40.621Z,22.43
2019-02-15T08:18:06.377Z,25.03
2019-02-15T08:20:32.154Z,21.37
2019-02-15T08:22:57.898Z,20.77
2019-02-15T08:25:23.668Z,22.67
2019-02-15T08:27:49.427Z,20.20
2019-02-15T08:30:15.199Z,21.63
2019-02-15T08:32:40.955Z,21.40
2019-02-15T08:35:08.772Z,20.73
2019-02-15T08:37:34.551Z,22.37
2019-02-15T08:40:00.353Z,20.13
2019-02-15T08:42:26.068Z,24.03
2019-02-15T08:44:51.819Z,19.93
2019-02-15T08:47:17.579Z,21.00
2019-02-15T08:49:43.337Z,18.07
2019-02-15T08:52:09.147Z,18.23
2019-02-15T08:54:34.901Z,19.00
2019-02-15T08:57:00.652Z,18.87
2019-02-15T08:59:26.405Z,17.87
2019-02-15T09:02:05.755Z,18.73
2019-02-15T09:04:31.506Z,19.37
2019-02-15T09:06:57.274Z,17.63
2019-02-15T09:09:23.031Z,18.13
2019-02-15T09:11:48.798Z,18.67
2019-02-15T09:14:14.545Z,17.27
2019-02-15T09:16:40.312Z,16.63
2019-02-15T09:19:06.067Z,17.43
2019-02-15T09:21:31.829Z,15.63
2019-02-15T09:23:57.590Z,16.33
2019-02-15T09:26:23.369Z,16.07
2019-02-15T09:28:51.023Z,14.77
2019-02-15T09:31:16.785Z,15.80
2019-02-15T09:33:42.557Z,16.73
2019-02-15T09:36:08.306Z,15.20
2019-02-15T09:38:34.094Z,14.83
2019-02-15T09:40:59.845Z,12.93
2019-02-15T09:43:25.613Z,22.97
2019-02-15T09:45:51.366Z,16.03
2019-02-15T09:48:17.143Z,14.90
2019-02-15T09:50:42.894Z,12.50
2019-02-15T09:53:08.758Z,11.73
2019-02-15T09:55:34.452Z,11.83
2019-02-15T09:58:00.222Z,11.10
2019-02-15T10:00:25.992Z,11.73
2019-02-15T10:02:51.761Z,10.83
2019-02-15T10:05:17.525Z,10.90
2019-02-15T10:07:43.301Z,10.43
2019-02-15T10:10:09.057Z,11.70
2019-02-15T10:12:34.816Z,9.93
2019-02-15T10:15:00.582Z,10.63
2019-02-15T10:17:26.336Z,12.23
2019-02-15T10:19:52.106Z,10.30
2019-02-15T10:22:17.864Z,10.43
2019-02-15T10:24:43.650Z,10.97
2019-02-15T10:27:09.398Z,11.57
2019-02-15T10:29:35.158Z,11.13
2019-02-15T10:32:01.020Z,12.00
2019-02-15T10:34:26.773Z,12.03
2019-02-15T10:36:52.545Z,11.67
2019-02-15T10:39:18.317Z,13.40
2019-02-15T10:41:44.074Z,13.57
2019-02-15T10:44:09.845Z,12.33
2019-02-15T10:46:37.859Z,12.60
2019-02-15T10:49:03.290Z,13.30
2019-02-15T10:51:29.061Z,12.90
2019-02-15T10:53:54.815Z,13.20
2019-02-15T10:56:20.574Z,13.53
2019-02-15T10:58:46.341Z,12.07
2019-02-15T11:01:12.101Z,12.50
2019-02-15T11:03:37.854Z,12.30
2019-02-15T11:06:03.619Z,12.60
2019-02-15T11:08:29.367Z,12.13
2019-02-15T11:10:55.157Z,12.03
2019-02-15T11:13:20.877Z,12.00
2019-02-15T11:15:46.637Z,16.13
2019-02-15T11:18:12.384Z,14.30
2019-02-15T11:20:38.153Z,11.80
2019-02-15T11:23:04.101Z,12.07
2019-02-15T11:25:29.937Z,13.83
2019-02-15T11:27:55.738Z,12.67
2019-02-15T11:30:21.546Z,11.80
2019-02-15T11:32:47.323Z,12.00
2019-02-15T11:35:13.089Z,12.73
2019-02-15T11:37:38.878Z,11.87
2019-02-15T11:40:08.472Z,12.57
2019-02-15T11:42:36.200Z,13.30
2019-02-15T11:45:04.159Z,18.03
2019-02-15T11:47:31.014Z,12.97
2019-02-15T11:49:56.850Z,14.10
2019-02-15T11:52:22.641Z,13.57
2019-02-15T11:54:48.421Z,15.20
2019-02-15T11:57:14.223Z,12.60
2019-02-15T11:59:40.010Z,14.83
2019-02-15T12:02:06.672Z,13.20
2019-02-15T12:04:32.487Z,15.47
2019-02-15T12:06:58.276Z,13.03
2019-02-15T12:09:24.039Z,11.67
2019-02-15T12:11:49.867Z,12.43
2019-02-15T12:14:15.648Z,12.50
2019-02-15T12:16:41.517Z,11.67
2019-02-15T12:19:07.294Z,11.87
2019-02-15T12:21:33.086Z,12.37
2019-02-15T12:23:58.842Z,10.53
2019-02-15T12:26:24.652Z,13.10
2019-02-15T12:28:50.446Z,13.77
2019-02-15T12:31:16.226Z,11.93
2019-02-15T12:33:42.030Z,11.30
2019-02-15T12:36:07.882Z,10.40
2019-02-15T12:38:33.741Z,9.33
2019-02-15T12:40:59.545Z,10.00
2019-02-15T12:43:25.383Z,10.07
2019-02-15T12:45:51.186Z,10.43
2019-02-15T12:48:17.002Z,10.00
2019-02-15T12:50:43.047Z,11.03
2019-02-15T12:53:08.873Z,12.90
2019-02-15T12:55:34.700Z,12.20
2019-02-15T12:58:00.503Z,9.83
2019-02-15T13:00:26.290Z,9.17
2019-02-15T13:02:52.091Z,10.10
2019-02-15T13:05:17.958Z,9.83
2019-02-15T13:07:43.770Z,9.10
2019-02-15T13:10:12.362Z,9.27
2019-02-15T13:12:38.122Z,8.43
2019-02-15T13:15:08.616Z,8.13
2019-02-15T13:17:34.432Z,8.73
2019-02-15T13:20:00.239Z,9.30
2019-02-15T13:22:26.063Z,8.03
2019-02-15T13:24:51.858Z,7.43
2019-02-15T13:27:17.629Z,9.27
2019-02-15T13:29:43.452Z,7.57
2019-02-15T13:32:09.210Z,7.53
2019-02-15T13:34:35.068Z,6.80
2019-02-15T13:37:00.840Z,7.17
2019-02-15T13:39:26.670Z,7.73
2019-02-15T13:41:52.454Z,6.10
2019-02-15T13:44:18.273Z,8.23
2019-02-15T13:46:45.958Z,6.40
2019-02-15T13:49:13.069Z,6.70
2019-02-15T13:51:38.897Z,5.80
2019-02-15T13:54:04.693Z,8.83
2019-02-15T13:56:30.463Z,5.93
2019-02-15T13:58:56.233Z,6.37
2019-02-15T14:01:22.227Z,6.13
2019-02-15T14:03:48.082Z,8.33
2019-02-15T14:06:13.933Z,8.67
2019-02-15T14:08:39.697Z,8.33
2019-02-15T14:11:05.546Z,6.90
2019-02-15T14:13:31.332Z,6.83
2019-02-15T14:15:57.109Z,6.47
2019-02-15T14:18:22.887Z,7.20
2019-02-15T14:20:48.715Z,6.87
2019-02-15T14:23:14.553Z,6.60
2019-02-15T14:25:40.344Z,8.93
2019-02-15T14:28:06.346Z,5.30
2019-02-15T14:30:32.136Z,5.40
2019-02-15T14:32:57.882Z,6.70
2019-02-15T14:35:23.753Z,7.40
2019-02-15T14:37:49.551Z,8.37
2019-02-15T14:40:15.514Z,9.60
2019-02-15T14:42:41.260Z,6.63
2019-02-15T14:45:08.829Z,6.37
2019-02-15T14:47:34.584Z,6.90
2019-02-15T14:50:00.506Z,8.47
2019-02-15T14:52:26.220Z,7.13
2019-02-15T14:54:51.971Z,7.60
2019-02-15T14:57:17.740Z,6.17
2019-02-15T14:59:43.484Z,7.17
2019-02-15T15:02:09.248Z,7.13
2019-02-15T15:04:35.006Z,8.83
2019-02-15T15:07:00.774Z,9.77
2019-02-15T15:09:26.519Z,6.70
2019-02-15T15:11:52.905Z,6.27
2019-02-15T15:14:18.733Z,7.20
2019-02-15T15:16:44.497Z,6.03
2019-02-15T15:19:10.253Z,6.97
2019-02-15T15:21:36.029Z,8.53
2019-02-15T15:24:01.790Z,6.97
2019-02-15T15:26:27.553Z,7.20
2019-02-15T15:28:53.300Z,5.63
2019-02-15T15:31:19.060Z,6.57
2019-02-15T15:33:44.803Z,5.63
2019-02-15T15:36:10.590Z,5.60
2019-02-15T15:38:36.367Z,6.07
2019-02-15T15:41:02.139Z,5.83
2019-02-15T15:43:27.889Z,5.57
2019-02-15T15:45:53.654Z,7.37
2019-02-15T15:48:22.661Z,9.47
2019-02-15T15:50:47.073Z,8.17
2019-02-15T15:53:12.838Z,7.27
2019-02-15T15:55:38.590Z,5.77
2019-02-15T15:58:04.370Z,7.37
2019-02-15T16:00:38.674Z,8.00
2019-02-15T16:02:57.800Z,8.50
2019-02-15T16:05:23.547Z,7.97
2019-02-15T16:07:49.342Z,7.97
2019-02-15T16:10:15.117Z,10.03
2019-02-15T16:12:40.889Z,8.30
2019-02-15T16:15:08.923Z,7.17
2019-02-15T16:17:34.713Z,6.20
2019-02-15T16:20:01.193Z,6.33
2019-02-15T16:22:26.970Z,7.20
2019-02-15T16:24:52.730Z,6.67
2019-02-15T16:27:18.492Z,7.20
2019-02-15T16:29:44.242Z,9.07
2019-02-15T16:32:10.011Z,10.50
2019-02-15T16:34:35.751Z,9.87
2019-02-15T16:37:01.568Z,8.20
2019-02-15T16:39:27.351Z,6.93
2019-02-15T16:41:53.159Z,6.40
2019-02-15T16:44:18.908Z,7.00
2019-02-15T16:46:44.662Z,7.77
2019-02-15T16:49:10.456Z,8.53
2019-02-15T16:51:36.217Z,8.83
2019-02-15T16:54:03.424Z,8.00
2019-02-15T16:56:29.205Z,8.60
2019-02-15T16:58:54.951Z,12.80
2019-02-15T17:01:20.829Z,14.23
2019-02-15T17:03:46.597Z,15.23
2019-02-15T17:06:12.347Z,13.07
2019-02-15T17:08:38.109Z,19.37
2019-02-15T17:11:03.912Z,18.07
2019-02-15T17:13:29.966Z,17.87
2019-02-15T17:15:55.746Z,17.43
2019-02-15T17:18:21.513Z,13.63
2019-02-15T17:20:47.260Z,9.47
2019-02-15T17:23:13.025Z,8.87
2019-02-15T17:25:38.777Z,8.73
2019-02-15T17:28:04.540Z,7.67
2019-02-15T17:30:30.306Z,7.20
2019-02-15T17:32:56.093Z,6.97
2019-02-15T17:35:21.852Z,7.37
2019-02-15T17:37:47.629Z,6.30
2019-02-15T17:40:14.798Z,10.00
2019-02-15T17:42:40.559Z,9.97
2019-02-15T17:45:08.431Z,11.20
2019-02-15T17:47:34.186Z,10.53
2019-02-15T17:49:59.955Z,12.30
2019-02-15T17:52:25.714Z,7.97
2019-02-15T17:54:51.488Z,8.27
2019-02-15T17:57:17.257Z,8.37
2019-02-15T17:59:43.033Z,8.37
2019-02-15T18:02:09.184Z,8.30
2019-02-15T18:04:34.952Z,10.50
2019-02-15T18:07:00.700Z,19.60
2019-02-15T18:09:26.459Z,20.27
2019-02-15T18:11:52.209Z,18.87
2019-02-15T18:14:17.982Z,17.37
2019-02-15T18:16:43.778Z,16.97
2019-02-15T18:19:10.430Z,15.33
2019-02-15T18:21:36.386Z,13.40
2019-02-15T18:24:02.106Z,12.87
2019-02-15T18:26:27.909Z,13.17
2019-02-15T18:28:55.053Z,10.90
2019-02-15T18:31:20.821Z,9.73
2019-02-15T18:33:48.020Z,9.57
2019-02-15T18:36:15.113Z,10.63
2019-02-15T18:38:40.896Z,11.27
2019-02-15T18:41:13.334Z,8.77
2019-02-15T18:43:34.288Z,11.10
2019-02-15T18:46:00.053Z,11.73
2019-02-15T18:48:25.815Z,11.03
2019-02-15T18:50:51.578Z,9.27
2019-02-15T18:53:17.353Z,9.13
2019-02-15T18:55:43.117Z,11.83
2019-02-15T18:58:08.869Z,12.20
2019-02-15T19:00:34.633Z,12.27
2019-02-15T19:03:00.394Z,12.17
2019-02-15T19:05:26.162Z,9.40
2019-02-15T19:07:51.922Z,12.00
2019-02-15T19:10:21.979Z,10.80
2019-02-15T19:12:47.729Z,10.90
2019-02-15T19:15:14.780Z,12.07
2019-02-15T19:17:40.543Z,14.40
2019-02-15T19:20:08.915Z,13.60
2019-02-15T19:22:34.666Z,12.17
2019-02-15T19:25:00.431Z,14.33
2019-02-15T19:27:26.200Z,16.20
2019-02-15T19:29:51.955Z,13.83
2019-02-15T19:32:17.832Z,12.50
2019-02-15T19:34:43.593Z,11.00
2019-02-15T19:37:09.399Z,10.47
2019-02-15T19:39:35.163Z,14.60
2019-02-15T19:42:01.422Z,10.00
2019-02-15T19:44:27.171Z,12.20
2019-02-15T19:46:52.938Z,13.83
2019-02-15T19:49:18.705Z,10.13
2019-02-15T19:51:44.475Z,11.23
2019-02-15T19:54:10.235Z,12.23
2019-02-15T19:56:36.010Z,13.93
2019-02-15T19:59:01.768Z,10.67
2019-02-15T20:01:27.517Z,9.90
2019-02-15T20:03:53.293Z,11.73
2019-02-15T20:06:19.340Z,12.77
2019-02-15T20:08:45.112Z,16.03
2019-02-15T20:11:11.037Z,12.20
2019-02-15T20:13:36.798Z,11.33
2019-02-15T20:16:02.552Z,14.27
2019-02-15T20:18:28.325Z,16.27
2019-02-15T20:20:54.071Z,14.10
2019-02-15T20:23:19.837Z,14.87
2019-02-15T20:25:45.591Z,12.73
2019-02-15T20:28:14.202Z,13.20
2019-02-15T20:30:39.000Z,16.67
2019-02-15T20:33:04.762Z,16.67
2019-02-15T20:35:30.524Z,14.77
2019-02-15T20:37:56.293Z,13.57
2019-02-15T20:40:22.071Z,13.20
2019-02-15T20:42:48.087Z,14.80
2019-02-15T20:45:16.708Z,13.77
2019-02-15T20:47:42.469Z,13.97
2019-02-15T20:50:09.823Z,15.63
2019-02-15T20:52:35.587Z,13.50
2019-02-15T20:55:01.352Z,13.73
2019-02-15T20:57:27.088Z,12.40
2019-02-15T20:59:52.858Z,13.37
2019-02-15T21:02:19.094Z,12.00
2019-02-15T21:04:45.472Z,12.20
2019-02-15T21:07:11.621Z,11.20
2019-02-15T21:09:37.613Z,12.27
2019-02-15T21:12:03.410Z,14.13
2019-02-15T21:14:30.985Z,14.50
2019-02-15T21:16:56.741Z,13.47
2019-02-15T21:19:22.520Z,12.00
2019-02-15T21:21:48.267Z,13.00
2019-02-15T21:24:14.260Z,11.63
2019-02-15T21:26:40.481Z,10.97
2019-02-15T21:29:06.534Z,11.03
2019-02-15T21:31:32.584Z,11.70
2019-02-15T21:33:58.458Z,11.37
2019-02-15T21:36:24.400Z,12.57
2019-02-15T21:38:50.394Z,14.37
2019-02-15T21:41:16.157Z,12.47
2019-02-15T21:43:41.923Z,12.80
2019-02-15T21:46:09.238Z,12.30
2019-02-15T21:48:35.198Z,12.90
2019-02-15T21:51:01.207Z,9.50
2019-02-15T21:53:27.361Z,12.23
2019-02-15T21:55:53.298Z,10.33
2019-02-15T21:58:19.217Z,11.13
2019-02-15T22:00:44.967Z,10.83
2019-02-15T22:03:10.713Z,11.60
2019-02-15T22:05:36.474Z,12.40
2019-02-15T22:08:02.514Z,9.40
2019-02-15T22:10:28.578Z,12.73
2019-02-15T22:12:54.536Z,12.20
2019-02-15T22:15:20.716Z,10.90
2019-02-15T22:17:46.465Z,8.63
2019-02-15T22:20:13.328Z,8.37
2019-02-15T22:22:39.353Z,9.00
2019-02-15T22:25:05.918Z,10.30
2019-02-15T22:27:31.668Z,8.87
2019-02-15T22:29:57.541Z,9.20
2019-02-15T22:32:23.454Z,9.17
2019-02-15T22:34:49.535Z,8.87
2019-02-15T22:37:16.920Z,8.30
2019-02-15T22:39:42.930Z,9.30
2019-02-15T22:42:08.820Z,6.90
2019-02-15T22:44:35.095Z,7.50
2019-02-15T22:47:01.740Z,7.13
2019-02-15T22:49:27.507Z,6.30
2019-02-15T22:51:53.576Z,7.70
2019-02-15T22:54:19.450Z,8.67
2019-02-15T22:56:46.023Z,7.03
2019-02-15T22:59:11.974Z,8.97
2019-02-15T23:01:37.824Z,7.90
2019-02-15T23:04:03.973Z,9.10
2019-02-15T23:06:29.892Z,9.57
2019-02-15T23:08:55.643Z,6.57
2019-02-15T23:11:21.406Z,7.57
2019-02-15T23:13:47.157Z,6.37
2019-02-15T23:16:12.920Z,6.90
2019-02-15T23:18:38.672Z,7.23
2019-02-15T23:21:04.433Z,8.97
2019-02-15T23:23:30.303Z,7.23
2019-02-15T23:25:56.090Z,7.33
2019-02-15T23:28:21.967Z,9.87
2019-02-15T23:30:47.727Z,7.53
2019-02-15T23:33:13.486Z,7.00
2019-02-15T23:35:39.251Z,8.33
2019-02-15T23:38:04.997Z,7.70
2019-02-15T23:40:30.786Z,8.13
2019-02-15T23:42:56.531Z,7.80
2019-02-15T23:45:22.343Z,7.53
2019-02-15T23:47:48.262Z,6.70
2019-02-15T23:50:14.031Z,8.07
2019-02-15T23:52:39.740Z,8.57
2019-02-15T23:55:05.504Z,7.57
2019-02-15T23:57:31.247Z,7.10
2019-02-15T23:59:57.000Z,6.30
